Mama, Russia
Current Conditions -  °F | °C
As of 7:00 PM on Tuesday 21 Oct 2014 (Local Time) from UIAA Reporting Station
Clear Clear  
Wind Chill: 11°   Ceiling: Unl
Heat Index: 18°   Visibility: 6mi
Dew Point: 10°   Wind: 4mph
Humidity: 73%   Direction: 320°NW
Pressure: 30.03"   Gusts: NA
Location:  58.31°N, 112.9°E
Report Text: UIAA 211100Z 32002MPS 9999 SKC M08/M12 Q1017 NOSIG RMK QFE70429CLRD70
Loading
Personal Weather Stations






























Interactive Weather Map
Tropical Storm Tracking
New forecast layout! Learn more

10-Day Weather Forecast

Advertisements
Track Severe Weather on mobile